Accueil
METAR-TAF:

METAR-TAF

Aéroports :

Elizabeth City, Caroline du Nord, États-Unis

latitude: 36-15-47N, longitude: 076-10-58W, altitude: 3 m

Observation

Le bulletin a été fait il y a 1 heure et 16 minutes, à 14:54 UTC
Vent 5 kt de nord
Température 6°C
Humidité 70%
Pression 1030 hPa
Visibilité: 16.1 km
Ciel clair

METAR: KECG 141454Z 35005KT 10SM CLR 06/01 A3043 RMK AO2 SLP305 T00610011 53003

Heure: 11:10 (16:10 UTC)

Prévision

Le bulletin a été fait il y a 4 heures et 26 minutes, à 11:44 UTC
Prévision valable du 14 à 12 UTC au 15 à 12 UTC
Vent 4 kt de nord
Visibilité: 10 km
Ciel clair
A partir de 15 à 0000 UTC
Vent 4 kt de nord-est
Visibilité: 10 km
Ciel couvert à une hauteur de 5000 ft
A partir de 15 à 0800 UTC
Vent 11 kt de nord
Visibilité: 6.4 km
Ciel couvert à une hauteur de 700 ft
pluie faible, brume

TAF: KECG 141144Z 1412/1512 36004KT P6SM SKC FM150000 04004KT P6SM OVC050 FM150800 36011KT 4SM -RA BR OVC007

Observations et prévisions météorologiques de plus de 4000 aéroports (messages METAR et TAF).

Les stations disponibles sont représentées par des disques jaunes et rouges sur la carte.

Passer la souris dessus pour voir le nom de la station.

Cliquer dessus pour voir les observations et prévisions météorologiques.

Pour changer de carte: cliquez sur les boutons verts avec une croix noire pour zoomer, sur le bouton vert avec un tiret pour effectuer un zoom arrière, ou sur les flèches vertes pour les cartes adjacentes.


METAR-TAF: